createdAt,value
2022-08-04T00:01:21.559Z,3.33
2022-08-04T00:03:56.948Z,3.63
2022-08-04T00:06:37.524Z,3.70
2022-08-04T00:09:15.040Z,3.67
2022-08-04T00:11:48.670Z,3.27
2022-08-04T00:14:17.976Z,3.40
2022-08-04T00:16:49.292Z,3.50
2022-08-04T00:19:20.298Z,3.73
2022-08-04T00:21:57.374Z,3.23
2022-08-04T00:24:27.709Z,3.20
2022-08-04T00:26:56.050Z,3.20
2022-08-04T00:29:24.779Z,3.50
2022-08-04T00:31:57.477Z,3.20
2022-08-04T00:34:28.152Z,3.23
2022-08-04T00:36:58.006Z,3.30
2022-08-04T00:39:28.713Z,3.57
2022-08-04T00:42:27.279Z,3.30
2022-08-04T00:45:15.012Z,3.77
2022-08-04T00:47:56.369Z,3.53
2022-08-04T00:50:32.943Z,3.43
2022-08-04T00:53:09.585Z,3.20
2022-08-04T00:56:13.610Z,3.53
2022-08-04T00:58:52.084Z,3.60
2022-08-04T01:01:38.462Z,3.70
2022-08-04T01:04:22.236Z,4.50
2022-08-04T01:07:05.456Z,4.77
2022-08-04T01:09:47.108Z,5.17
2022-08-04T01:12:52.820Z,5.03
2022-08-04T01:15:26.970Z,5.03
2022-08-04T01:18:05.388Z,4.97
2022-08-04T01:20:36.258Z,4.93
2022-08-04T01:23:36.560Z,4.80
2022-08-04T01:26:43.552Z,4.83
2022-08-04T01:29:17.672Z,4.13
2022-08-04T01:31:57.236Z,4.10
2022-08-04T01:34:28.499Z,3.80
2022-08-04T01:37:01.749Z,3.60
2022-08-04T01:39:42.225Z,3.80
2022-08-04T01:42:12.782Z,4.00
2022-08-04T01:45:08.244Z,3.60
2022-08-04T01:47:46.410Z,3.53
2022-08-04T01:50:15.480Z,3.20
2022-08-04T01:52:50.712Z,3.60
2022-08-04T01:55:19.732Z,3.70
2022-08-04T01:57:50.213Z,3.53
2022-08-04T02:00:21.447Z,3.73
2022-08-04T02:02:51.592Z,3.83
2022-08-04T02:05:22.401Z,3.77
2022-08-04T02:08:03.497Z,3.73
2022-08-04T02:10:45.152Z,3.67
2022-08-04T02:13:24.754Z,3.57
2022-08-04T02:16:02.950Z,3.63
2022-08-04T02:18:34.700Z,3.90
2022-08-04T02:21:03.717Z,3.87
2022-08-04T02:23:37.883Z,3.80
2022-08-04T02:26:19.284Z,3.53
2022-08-04T02:28:59.583Z,3.60
2022-08-04T02:31:37.097Z,3.80
2022-08-04T02:34:41.480Z,3.87
2022-08-04T02:37:11.928Z,4.20
2022-08-04T02:39:48.268Z,4.10
2022-08-04T02:42:18.449Z,4.00
2022-08-04T02:44:51.437Z,3.80
2022-08-04T02:47:23.221Z,3.87
2022-08-04T02:49:53.753Z,3.70
2022-08-04T02:52:26.415Z,3.70
2022-08-04T02:54:57.392Z,3.83
2022-08-04T02:57:28.710Z,4.20
2022-08-04T03:00:11.013Z,3.90
2022-08-04T03:02:58.941Z,4.10
2022-08-04T03:05:57.613Z,3.50
2022-08-04T03:09:00.081Z,3.80
2022-08-04T03:11:54.074Z,4.00
2022-08-04T03:14:58.777Z,4.20
2022-08-04T03:18:07.797Z,4.17
2022-08-04T03:21:46.576Z,4.03
2022-08-04T03:24:52.252Z,4.13
2022-08-04T03:27:57.024Z,4.20
2022-08-04T03:30:30.651Z,4.20
2022-08-04T03:33:32.859Z,4.20
2022-08-04T03:36:59.106Z,4.50
2022-08-04T03:40:10.585Z,3.93
2022-08-04T03:43:57.721Z,4.83
2022-08-04T03:46:58.229Z,3.90
2022-08-04T03:50:00.807Z,4.40
2022-08-04T03:53:09.550Z,4.13
2022-08-04T03:55:58.283Z,4.80
2022-08-04T03:58:53.918Z,4.17
2022-08-04T04:02:02.582Z,3.93
2022-08-04T04:04:59.333Z,4.00
2022-08-04T04:08:12.491Z,4.50
2022-08-04T04:11:29.253Z,4.30
2022-08-04T04:14:27.692Z,4.10
2022-08-04T04:17:10.520Z,4.13
2022-08-04T04:20:12.142Z,4.20
2022-08-04T04:23:01.398Z,4.13
2022-08-04T04:25:41.266Z,4.40
2022-08-04T04:28:54.840Z,4.53
2022-08-04T04:31:40.483Z,4.30
2022-08-04T04:34:49.864Z,3.97
2022-08-04T04:38:05.633Z,4.10
2022-08-04T04:44:31.451Z,4.20
2022-08-04T04:48:06.941Z,4.07
2022-08-04T04:54:00.440Z,5.10
2022-08-04T04:56:38.236Z,4.40
2022-08-04T04:59:11.616Z,4.77
2022-08-04T05:02:08.773Z,4.57
2022-08-04T05:05:21.092Z,4.73
2022-08-04T05:08:42.948Z,4.93
2022-08-04T05:11:34.916Z,4.47
2022-08-04T05:14:37.447Z,4.13
2022-08-04T05:17:04.295Z,4.53
2022-08-04T05:19:54.265Z,4.47
2022-08-04T05:22:34.421Z,4.80
2022-08-04T05:25:07.890Z,4.60
2022-08-04T05:27:41.408Z,4.57
2022-08-04T05:30:14.201Z,5.17
2022-08-04T05:32:47.915Z,4.60
2022-08-04T05:58:14.845Z,4.73
2022-08-04T06:00:52.374Z,5.30
2022-08-04T06:03:21.215Z,5.37
2022-08-04T06:05:52.876Z,6.40
2022-08-04T06:11:11.188Z,6.43
2022-08-04T06:13:45.419Z,6.87
2022-08-04T06:16:39.928Z,8.70
2022-08-04T06:20:00.896Z,8.47
2022-08-04T06:22:16.095Z,11.20
2022-08-04T06:27:53.494Z,8.03
2022-08-04T06:30:26.259Z,7.80
2022-08-04T06:33:25.253Z,7.13
2022-08-04T06:35:57.808Z,6.97
2022-08-04T06:38:28.149Z,6.87
2022-08-04T06:41:04.374Z,6.57
2022-08-04T06:43:42.908Z,6.30
2022-08-04T06:46:18.813Z,6.10
2022-08-04T06:48:52.386Z,6.60
2022-08-04T06:51:25.041Z,6.97
2022-08-04T06:54:01.660Z,5.97
2022-08-04T06:56:32.199Z,5.87
2022-08-04T06:59:02.519Z,5.90
2022-08-04T07:01:33.632Z,6.30
2022-08-04T07:04:09.899Z,6.20
2022-08-04T07:06:38.510Z,5.13
2022-08-04T07:09:08.117Z,5.43
2022-08-04T07:11:44.435Z,5.30
2022-08-04T07:20:54.278Z,4.40
2022-08-04T07:23:26.005Z,3.90
2022-08-04T07:26:11.942Z,4.47
2022-08-04T07:35:01.775Z,3.70
2022-08-04T07:37:39.323Z,3.80
2022-08-04T07:40:27.857Z,3.53
2022-08-04T07:43:01.002Z,3.80
2022-08-04T07:45:34.171Z,3.60
2022-08-04T07:48:09.718Z,3.27
2022-08-04T07:50:49.321Z,3.47
2022-08-04T07:53:54.465Z,3.37
2022-08-04T07:56:20.107Z,3.30
2022-08-04T07:58:54.210Z,3.20
2022-08-04T08:01:38.148Z,3.37
2022-08-04T08:04:11.611Z,3.00
2022-08-04T08:06:46.484Z,3.17
2022-08-04T08:09:33.456Z,3.13
2022-08-04T08:12:38.441Z,3.53
2022-08-04T08:14:52.962Z,2.90
2022-08-04T08:17:23.478Z,3.40
2022-08-04T08:26:30.813Z,3.05
2022-08-04T08:29:07.273Z,2.70
2022-08-04T08:31:57.098Z,2.42
2022-08-04T08:34:28.743Z,2.67
2022-08-04T08:40:10.450Z,2.42
2022-08-04T08:44:03.853Z,2.55
2022-08-04T08:46:48.362Z,2.63
2022-08-04T08:50:08.683Z,2.25
2022-08-04T08:53:24.332Z,2.67
2022-08-04T08:56:32.978Z,2.60
2022-08-04T08:59:30.497Z,2.35
2022-08-04T09:02:38.707Z,2.22
2022-08-04T09:06:09.452Z,2.42
2022-08-04T09:09:57.860Z,2.40
2022-08-04T09:12:32.259Z,2.40
2022-08-04T09:15:06.628Z,2.27
2022-08-04T09:17:44.178Z,2.20
2022-08-04T09:20:35.846Z,2.43
2022-08-04T09:23:21.655Z,2.20
2022-08-04T09:29:01.976Z,2.15
2022-08-04T09:32:06.149Z,2.20
2022-08-04T09:35:08.369Z,1.90
2022-08-04T09:37:46.273Z,1.98
2022-08-04T09:46:45.726Z,1.75
2022-08-04T09:49:23.454Z,1.88
2022-08-04T09:52:02.242Z,1.67
2022-08-04T09:55:05.228Z,1.67
2022-08-04T09:57:52.986Z,1.70
2022-08-04T10:00:41.005Z,1.60
2022-08-04T10:03:19.950Z,1.50
2022-08-04T10:06:14.774Z,1.60
2022-08-04T10:09:16.850Z,2.00
2022-08-04T10:18:15.334Z,1.90
2022-08-04T10:21:06.219Z,1.50
2022-08-04T10:23:56.421Z,1.60
2022-08-04T10:26:36.256Z,1.57
2022-08-04T10:29:08.324Z,1.70
2022-08-04T10:31:45.662Z,1.50
2022-08-04T10:34:22.725Z,1.40
2022-08-04T10:43:22.254Z,1.63
2022-08-04T10:45:57.972Z,1.60
2022-08-04T10:48:41.322Z,1.70
2022-08-04T10:51:57.699Z,1.60
2022-08-04T10:54:45.299Z,1.40
2022-08-04T10:57:21.707Z,1.57
2022-08-04T11:00:00.765Z,1.80
2022-08-04T11:02:42.998Z,1.80
2022-08-04T11:05:23.484Z,1.57
2022-08-04T11:08:33.829Z,1.30
2022-08-04T11:25:34.678Z,1.60
2022-08-04T11:28:17.389Z,1.40
2022-08-04T11:31:19.696Z,1.50
2022-08-04T11:34:37.782Z,1.60
2022-08-04T11:41:26.372Z,1.57
2022-08-04T11:54:01.344Z,1.50
2022-08-04T11:57:03.320Z,2.10
2022-08-04T12:00:04.050Z,1.50
2022-08-04T12:03:09.702Z,1.50
2022-08-04T12:09:43.641Z,1.93
2022-08-04T12:22:38.732Z,1.70
2022-08-04T12:29:24.906Z,1.73
2022-08-04T12:36:27.101Z,1.93
2022-08-04T12:43:18.544Z,2.22
2022-08-04T12:46:25.743Z,1.67
2022-08-04T12:49:24.361Z,2.10
2022-08-04T12:55:27.600Z,1.60
2022-08-04T12:57:58.341Z,1.50
2022-08-04T13:00:42.371Z,1.65
2022-08-04T13:03:21.074Z,1.77
2022-08-04T13:05:56.546Z,1.70
2022-08-04T13:09:17.517Z,1.80
2022-08-04T13:11:57.174Z,2.30
2022-08-04T13:14:40.535Z,1.58
2022-08-04T13:20:46.130Z,1.70
2022-08-04T13:23:21.758Z,1.67
2022-08-04T13:26:45.196Z,1.80
2022-08-04T13:28:46.286Z,1.80
2022-08-04T13:31:17.956Z,2.00
2022-08-04T13:33:50.838Z,2.10
2022-08-04T13:36:27.073Z,1.80
2022-08-04T13:38:59.499Z,1.90
2022-08-04T13:41:31.208Z,1.70
2022-08-04T13:44:19.569Z,1.93
2022-08-04T13:52:35.309Z,2.72
2022-08-04T13:55:06.861Z,2.00
2022-08-04T13:57:48.590Z,1.83
2022-08-04T14:00:29.832Z,1.60
2022-08-04T14:03:23.116Z,1.90
2022-08-04T14:06:25.792Z,1.63
2022-08-04T14:12:45.651Z,1.92
2022-08-04T14:16:01.625Z,1.70
2022-08-04T14:18:36.350Z,1.60
2022-08-04T14:21:14.104Z,1.65
2022-08-04T14:23:47.616Z,1.70
2022-08-04T14:26:32.860Z,2.00
2022-08-04T14:29:26.977Z,1.88
2022-08-04T14:36:22.468Z,1.60
2022-08-04T14:39:00.524Z,1.80
2022-08-04T14:41:32.619Z,2.25
2022-08-04T14:44:02.419Z,1.70
2022-08-04T14:46:37.331Z,1.67
2022-08-04T14:49:13.312Z,1.83
2022-08-04T14:51:59.372Z,1.58
2022-08-04T15:01:25.408Z,1.90
2022-08-04T15:04:04.421Z,1.70
2022-08-04T15:06:39.323Z,2.05
2022-08-04T15:09:13.220Z,1.90
2022-08-04T15:11:45.285Z,2.00
2022-08-04T15:14:36.870Z,1.75
2022-08-04T15:17:30.160Z,1.90
2022-08-04T15:20:17.331Z,1.42
2022-08-04T15:26:01.550Z,1.90
2022-08-04T15:28:33.535Z,1.80
2022-08-04T15:34:48.881Z,1.70
2022-08-04T15:37:25.840Z,1.70
2022-08-04T15:40:00.625Z,1.90
2022-08-04T15:42:35.660Z,1.45
2022-08-04T15:45:21.903Z,1.70
2022-08-04T15:48:41.013Z,1.67
2022-08-04T15:55:23.479Z,1.57
2022-08-04T15:58:33.749Z,1.55
2022-08-04T16:01:18.300Z,1.70
2022-08-04T16:03:54.231Z,1.88
2022-08-04T16:06:47.439Z,1.90
2022-08-04T16:09:57.471Z,2.10
2022-08-04T16:13:07.737Z,1.95
2022-08-04T16:15:53.699Z,1.73
2022-08-04T16:18:40.634Z,1.80
2022-08-04T16:25:10.554Z,2.03
2022-08-04T16:27:45.313Z,1.98
2022-08-04T16:30:17.577Z,1.80
2022-08-04T16:32:48.056Z,1.45
2022-08-04T16:35:30.265Z,1.70
2022-08-04T16:38:16.094Z,1.67
2022-08-04T16:40:46.166Z,1.70
2022-08-04T16:43:23.777Z,1.80
2022-08-04T16:46:03.408Z,1.57
2022-08-04T16:48:39.545Z,1.50
2022-08-04T16:51:15.191Z,1.50
2022-08-04T16:53:53.965Z,1.60
2022-08-04T16:57:48.528Z,1.67
2022-08-04T17:00:36.301Z,1.60
2022-08-04T17:03:05.627Z,1.70
2022-08-04T17:05:40.128Z,1.73
2022-08-04T17:11:00.170Z,1.70
2022-08-04T17:14:02.931Z,1.70
2022-08-04T17:16:23.905Z,1.70
2022-08-04T17:18:54.954Z,1.57
2022-08-04T17:21:25.362Z,1.60
2022-08-04T17:24:12.962Z,1.80
2022-08-04T17:26:51.718Z,1.63
2022-08-04T17:29:43.480Z,1.63
2022-08-04T17:32:30.171Z,2.00
2022-08-04T17:35:10.056Z,1.93
2022-08-04T17:37:53.797Z,1.80
2022-08-04T17:44:04.146Z,1.60
2022-08-04T17:46:45.699Z,1.73
2022-08-04T17:49:32.249Z,2.03
2022-08-04T17:52:41.252Z,2.27
2022-08-04T17:55:38.046Z,2.03
2022-08-04T18:02:32.564Z,3.07
2022-08-04T18:06:03.295Z,1.87
2022-08-04T18:08:50.485Z,2.20
2022-08-04T18:11:28.760Z,1.87
2022-08-04T18:14:14.604Z,1.90
2022-08-04T18:16:47.807Z,2.10
2022-08-04T18:19:48.343Z,2.20
2022-08-04T18:22:31.861Z,2.83
2022-08-04T18:27:33.889Z,2.60
2022-08-04T18:30:34.056Z,2.63
2022-08-04T18:33:24.682Z,2.10
2022-08-04T18:36:34.656Z,2.50
2022-08-04T18:38:37.602Z,2.43
2022-08-04T18:41:28.847Z,2.50
2022-08-04T18:44:17.103Z,2.50
2022-08-04T18:46:55.988Z,2.30
2022-08-04T18:51:00.289Z,2.77
2022-08-04T18:52:16.110Z,3.90
2022-08-04T18:55:03.732Z,3.07
2022-08-04T18:58:01.023Z,3.10
2022-08-04T19:00:21.899Z,3.33
2022-08-04T19:02:53.181Z,3.23
2022-08-04T19:05:22.318Z,3.10
2022-08-04T19:08:32.620Z,3.30
2022-08-04T19:11:36.908Z,3.83
2022-08-04T19:14:00.889Z,3.87
2022-08-04T19:16:54.903Z,3.20
2022-08-04T19:19:49.559Z,3.23
2022-08-04T19:22:35.491Z,3.23
2022-08-04T19:25:04.878Z,3.10
2022-08-04T19:27:40.215Z,3.20
2022-08-04T19:30:17.674Z,3.30
2022-08-04T19:39:30.545Z,3.17
2022-08-04T19:43:01.701Z,2.30
2022-08-04T19:45:45.802Z,19.53
2022-08-04T19:48:19.571Z,15.73
2022-08-04T19:50:49.005Z,6.10
2022-08-04T19:53:37.560Z,2.80
2022-08-04T19:56:11.896Z,2.60
2022-08-04T19:59:12.851Z,2.73
2022-08-04T20:01:58.539Z,2.80
2022-08-04T20:04:26.910Z,2.77
2022-08-04T20:06:55.699Z,2.80
2022-08-04T20:09:27.204Z,2.90
2022-08-04T20:11:57.069Z,3.10
2022-08-04T20:14:31.259Z,2.83
2022-08-04T20:17:10.778Z,3.00
2022-08-04T20:19:42.036Z,3.50
2022-08-04T20:22:51.869Z,3.90
2022-08-04T20:25:36.046Z,4.20
2022-08-04T20:28:08.557Z,3.70
2022-08-04T20:30:54.262Z,3.50
2022-08-04T20:33:33.879Z,3.27
2022-08-04T20:36:36.858Z,2.97
2022-08-04T20:39:10.977Z,4.43
2022-08-04T20:41:53.201Z,2.80
2022-08-04T20:44:34.613Z,2.70
2022-08-04T20:47:03.453Z,2.63
2022-08-04T20:49:37.299Z,2.53
2022-08-04T20:52:13.399Z,2.40
2022-08-04T20:54:56.432Z,2.90
2022-08-04T20:57:48.681Z,2.43
2022-08-04T21:00:29.734Z,2.57
2022-08-04T21:06:29.225Z,2.63
2022-08-04T21:09:26.554Z,2.57
2022-08-04T21:12:10.706Z,2.60
2022-08-04T21:15:14.472Z,2.63
2022-08-04T21:17:59.455Z,2.43
2022-08-04T21:20:24.575Z,2.23
2022-08-04T21:23:02.122Z,2.23
2022-08-04T21:25:33.062Z,2.30
2022-08-04T21:28:12.038Z,2.33
2022-08-04T21:37:09.264Z,2.33
2022-08-04T21:39:50.579Z,2.73
2022-08-04T21:42:30.560Z,2.60
2022-08-04T21:45:02.369Z,2.90
2022-08-04T21:47:45.646Z,2.30
2022-08-04T21:53:05.341Z,2.77
2022-08-04T21:56:05.887Z,2.27
2022-08-04T21:58:26.804Z,3.27
2022-08-04T22:01:12.645Z,2.73
2022-08-04T22:03:52.851Z,2.80
2022-08-04T22:06:28.273Z,2.70
2022-08-04T22:08:57.916Z,2.53
2022-08-04T22:14:29.025Z,2.70
2022-08-04T22:16:58.684Z,2.70
2022-08-04T22:19:50.756Z,2.73
2022-08-04T22:22:25.524Z,2.73
2022-08-04T22:24:58.474Z,2.73
2022-08-04T22:27:55.065Z,2.90
2022-08-04T22:30:29.332Z,3.70
2022-08-04T22:33:02.436Z,3.63
2022-08-04T22:35:43.118Z,3.27
2022-08-04T22:38:24.263Z,3.57
2022-08-04T22:40:59.284Z,3.27
2022-08-04T22:43:32.456Z,3.27
2022-08-04T22:46:03.954Z,3.20
2022-08-04T22:48:35.582Z,2.57
2022-08-04T22:51:04.467Z,2.50
2022-08-04T22:53:35.721Z,2.40
2022-08-04T22:56:10.830Z,3.27
2022-08-04T22:58:51.183Z,3.10
2022-08-04T23:01:20.257Z,2.90
2022-08-04T23:03:55.782Z,2.80
2022-08-04T23:06:28.338Z,2.70
2022-08-04T23:08:57.261Z,3.00
2022-08-04T23:11:34.820Z,2.50
2022-08-04T23:14:06.220Z,2.67
2022-08-04T23:16:40.692Z,3.10
2022-08-04T23:19:12.200Z,3.00
2022-08-04T23:21:47.275Z,3.00
2022-08-04T23:24:16.267Z,2.77
2022-08-04T23:26:44.542Z,3.00
2022-08-04T23:29:14.148Z,3.10
2022-08-04T23:31:59.990Z,2.90
2022-08-04T23:34:29.316Z,2.50
2022-08-04T23:36:59.314Z,2.93
2022-08-04T23:40:03.849Z,2.90
2022-08-04T23:42:20.965Z,3.00
2022-08-04T23:44:51.456Z,2.93
2022-08-04T23:48:16.220Z,2.80
2022-08-04T23:50:09.007Z,2.93
2022-08-04T23:52:38.324Z,2.77
2022-08-04T23:55:10.894Z,2.90
2022-08-04T23:58:05.997Z,2.80
